sensor_id;sensor_type;location;lat;lon;timestamp;pressure;altitude;pressure_sealevel;temperature;humidity
55066;BME280;40964;42.114;24.220;2023-05-23T00:02:21;97594.47;;;14.19;80.42
55066;BME280;40964;42.114;24.220;2023-05-23T00:04:47;97595.13;;;14.09;80.54
55066;BME280;40964;42.114;24.220;2023-05-23T00:07:13;97574.16;;;14.03;80.78
55066;BME280;40964;42.114;24.220;2023-05-23T00:09:39;97587.19;;;14.09;80.67
55066;BME280;40964;42.114;24.220;2023-05-23T00:12:04;97584.00;;;14.07;79.92
55066;BME280;40964;42.114;24.220;2023-05-23T00:14:31;97583.69;;;14.04;80.95
55066;BME280;40964;42.114;24.220;2023-05-23T00:16:58;97563.53;;;13.81;81.70
55066;BME280;40964;42.114;24.220;2023-05-23T00:19:25;97578.31;;;13.99;80.99
55066;BME280;40964;42.114;24.220;2023-05-23T00:21:50;97588.84;;;13.94;81.63
55066;BME280;40964;42.114;24.220;2023-05-23T00:24:18;97558.00;;;13.82;82.32
55066;BME280;40964;42.114;24.220;2023-05-23T00:26:45;97570.63;;;13.97;81.90
55066;BME280;40964;42.114;24.220;2023-05-23T00:29:11;97571.69;;;13.96;81.55
55066;BME280;40964;42.114;24.220;2023-05-23T00:31:43;97571.34;;;13.92;82.60
55066;BME280;40964;42.114;24.220;2023-05-23T00:34:12;97568.25;;;13.96;82.88
55066;BME280;40964;42.114;24.220;2023-05-23T00:36:38;97574.09;;;13.98;82.21
55066;BME280;40964;42.114;24.220;2023-05-23T00:39:06;97554.09;;;13.85;81.62
55066;BME280;40964;42.114;24.220;2023-05-23T00:41:32;97561.22;;;13.84;81.90
55066;BME280;40964;42.114;24.220;2023-05-23T00:43:58;97569.94;;;13.85;81.81
55066;BME280;40964;42.114;24.220;2023-05-23T00:46:25;97575.63;;;13.77;83.49
55066;BME280;40964;42.114;24.220;2023-05-23T00:48:52;97565.22;;;13.70;83.10
55066;BME280;40964;42.114;24.220;2023-05-23T00:51:17;97575.00;;;13.70;83.40
55066;BME280;40964;42.114;24.220;2023-05-23T00:53:43;97571.81;;;13.68;84.14
55066;BME280;40964;42.114;24.220;2023-05-23T00:56:09;97560.50;;;13.55;85.27
55066;BME280;40964;42.114;24.220;2023-05-23T00:58:38;97569.72;;;13.53;84.52
55066;BME280;40964;42.114;24.220;2023-05-23T01:01:04;97557.16;;;13.43;85.35
55066;BME280;40964;42.114;24.220;2023-05-23T01:03:29;97557.94;;;13.44;85.77
55066;BME280;40964;42.114;24.220;2023-05-23T01:05:55;97568.81;;;13.47;85.11
55066;BME280;40964;42.114;24.220;2023-05-23T01:08:21;97529.38;;;13.24;85.47
55066;BME280;40964;42.114;24.220;2023-05-23T01:10:47;97572.59;;;13.51;85.30
55066;BME280;40964;42.114;24.220;2023-05-23T01:18:39;97569.47;;;13.54;83.19
55066;BME280;40964;42.114;24.220;2023-05-23T01:29:29;97558.25;;;13.47;84.96
55066;BME280;40964;42.114;24.220;2023-05-23T01:31:57;97550.56;;;13.29;85.74
55066;BME280;40964;42.114;24.220;2023-05-23T01:34:24;97558.44;;;13.24;86.07
55066;BME280;40964;42.114;24.220;2023-05-23T01:36:53;97544.53;;;13.17;86.27
55066;BME280;40964;42.114;24.220;2023-05-23T01:39:22;97547.88;;;13.24;85.93
55066;BME280;40964;42.114;24.220;2023-05-23T01:41:48;97543.63;;;13.23;86.85
55066;BME280;40964;42.114;24.220;2023-05-23T01:44:15;97543.69;;;13.28;85.90
55066;BME280;40964;42.114;24.220;2023-05-23T01:46:41;97545.22;;;13.24;85.65
55066;BME280;40964;42.114;24.220;2023-05-23T01:49:11;97545.47;;;13.22;86.30
55066;BME280;40964;42.114;24.220;2023-05-23T01:51:37;97537.63;;;13.27;86.21
55066;BME280;40964;42.114;24.220;2023-05-23T01:54:03;97533.47;;;13.31;84.88
55066;BME280;40964;42.114;24.220;2023-05-23T01:56:28;97535.88;;;13.33;82.52
55066;BME280;40964;42.114;24.220;2023-05-23T01:58:54;97530.34;;;13.34;82.42
55066;BME280;40964;42.114;24.220;2023-05-23T02:01:20;97516.19;;;13.41;82.50
55066;BME280;40964;42.114;24.220;2023-05-23T02:03:46;97522.66;;;13.33;83.65
55066;BME280;40964;42.114;24.220;2023-05-23T02:06:11;97521.31;;;13.30;84.99
55066;BME280;40964;42.114;24.220;2023-05-23T02:08:37;97519.13;;;13.27;84.11
55066;BME280;40964;42.114;24.220;2023-05-23T02:11:02;97512.00;;;13.28;83.25
55066;BME280;40964;42.114;24.220;2023-05-23T02:13:28;97526.34;;;13.32;83.31
55066;BME280;40964;42.114;24.220;2023-05-23T02:15:53;97507.84;;;13.32;82.35
55066;BME280;40964;42.114;24.220;2023-05-23T02:18:19;97531.69;;;13.37;83.99
55066;BME280;40964;42.114;24.220;2023-05-23T02:20:45;97528.97;;;13.32;83.48
55066;BME280;40964;42.114;24.220;2023-05-23T02:23:10;97535.06;;;13.32;82.73
55066;BME280;40964;42.114;24.220;2023-05-23T02:25:35;97542.00;;;13.39;82.43
55066;BME280;40964;42.114;24.220;2023-05-23T02:28:01;97544.44;;;13.40;83.93
55066;BME280;40964;42.114;24.220;2023-05-23T02:30:26;97531.38;;;13.33;84.00
55066;BME280;40964;42.114;24.220;2023-05-23T02:32:52;97543.84;;;13.38;84.17
55066;BME280;40964;42.114;24.220;2023-05-23T02:35:17;97552.19;;;13.30;85.29
55066;BME280;40964;42.114;24.220;2023-05-23T02:37:43;97539.16;;;13.23;85.97
55066;BME280;40964;42.114;24.220;2023-05-23T02:40:08;97544.97;;;13.25;85.83
55066;BME280;40964;42.114;24.220;2023-05-23T02:42:34;97536.16;;;13.20;86.07
55066;BME280;40964;42.114;24.220;2023-05-23T02:45:00;97544.28;;;13.18;86.18
55066;BME280;40964;42.114;24.220;2023-05-23T02:47:25;97549.16;;;13.21;86.59
55066;BME280;40964;42.114;24.220;2023-05-23T02:49:51;97553.59;;;13.21;86.66
55066;BME280;40964;42.114;24.220;2023-05-23T02:52:16;97547.31;;;13.22;86.88
55066;BME280;40964;42.114;24.220;2023-05-23T02:54:42;97549.38;;;13.20;86.85
55066;BME280;40964;42.114;24.220;2023-05-23T02:57:07;97546.63;;;13.15;87.14
55066;BME280;40964;42.114;24.220;2023-05-23T02:59:33;97541.09;;;13.16;85.96
55066;BME280;40964;42.114;24.220;2023-05-23T03:01:58;97537.91;;;13.14;85.50
55066;BME280;40964;42.114;24.220;2023-05-23T03:04:24;97535.13;;;13.21;85.86
55066;BME280;40964;42.114;24.220;2023-05-23T03:06:50;97538.66;;;13.26;85.41
55066;BME280;40964;42.114;24.220;2023-05-23T03:09:18;97539.16;;;13.40;85.18
55066;BME280;40964;42.114;24.220;2023-05-23T03:11:44;97538.41;;;13.45;84.71
55066;BME280;40964;42.114;24.220;2023-05-23T03:14:10;97526.50;;;13.42;84.38
55066;BME280;40964;42.114;24.220;2023-05-23T03:16:35;97533.53;;;13.53;85.00
55066;BME280;40964;42.114;24.220;2023-05-23T03:19:01;97545.22;;;13.57;84.08
55066;BME280;40964;42.114;24.220;2023-05-23T03:21:26;97536.81;;;13.60;84.86
55066;BME280;40964;42.114;24.220;2023-05-23T03:23:52;97531.66;;;13.71;84.35
55066;BME280;40964;42.114;24.220;2023-05-23T03:26:18;97535.28;;;13.64;84.75
55066;BME280;40964;42.114;24.220;2023-05-23T03:28:43;97540.69;;;13.75;84.80
55066;BME280;40964;42.114;24.220;2023-05-23T03:31:09;97542.13;;;13.82;83.91
55066;BME280;40964;42.114;24.220;2023-05-23T03:33:34;97541.00;;;13.95;85.33
55066;BME280;40964;42.114;24.220;2023-05-23T03:36:00;97537.88;;;13.98;84.62
55066;BME280;40964;42.114;24.220;2023-05-23T03:38:26;97546.25;;;14.12;84.21
55066;BME280;40964;42.114;24.220;2023-05-23T03:40:51;97542.69;;;14.23;84.22
55066;BME280;40964;42.114;24.220;2023-05-23T03:43:17;97535.66;;;14.34;83.85
55066;BME280;40964;42.114;24.220;2023-05-23T03:45:43;97537.50;;;14.50;83.63
55066;BME280;40964;42.114;24.220;2023-05-23T03:48:08;97546.50;;;14.76;82.44
55066;BME280;40964;42.114;24.220;2023-05-23T03:50:33;97543.25;;;14.96;80.23
55066;BME280;40964;42.114;24.220;2023-05-23T03:52:59;97543.59;;;15.37;78.97
55066;BME280;40964;42.114;24.220;2023-05-23T03:55:24;97542.56;;;15.70;77.59
55066;BME280;40964;42.114;24.220;2023-05-23T03:57:50;97542.97;;;15.94;75.64
55066;BME280;40964;42.114;24.220;2023-05-23T04:00:16;97538.66;;;16.30;73.63
55066;BME280;40964;42.114;24.220;2023-05-23T04:02:43;97542.75;;;16.63;72.84
55066;BME280;40964;42.114;24.220;2023-05-23T04:05:10;97538.03;;;16.85;72.77
55066;BME280;40964;42.114;24.220;2023-05-23T04:07:36;97541.53;;;17.11;71.34
55066;BME280;40964;42.114;24.220;2023-05-23T04:10:03;97538.63;;;17.48;70.60
55066;BME280;40964;42.114;24.220;2023-05-23T04:12:28;97535.97;;;17.89;67.90
55066;BME280;40964;42.114;24.220;2023-05-23T04:14:57;97533.44;;;18.33;66.28
55066;BME280;40964;42.114;24.220;2023-05-23T04:17:23;97530.34;;;18.70;65.87
55066;BME280;40964;42.114;24.220;2023-05-23T04:19:49;97540.50;;;19.08;66.32
55066;BME280;40964;42.114;24.220;2023-05-23T04:22:15;97540.22;;;19.09;63.16
55066;BME280;40964;42.114;24.220;2023-05-23T04:24:40;97542.53;;;18.82;64.24
55066;BME280;40964;42.114;24.220;2023-05-23T04:27:06;97541.69;;;18.86;64.02
55066;BME280;40964;42.114;24.220;2023-05-23T04:29:33;97550.91;;;19.04;64.09
55066;BME280;40964;42.114;24.220;2023-05-23T04:32:00;97551.78;;;19.34;65.38
55066;BME280;40964;42.114;24.220;2023-05-23T04:34:26;97553.34;;;19.74;63.49
55066;BME280;40964;42.114;24.220;2023-05-23T04:36:51;97552.69;;;20.11;61.60
55066;BME280;40964;42.114;24.220;2023-05-23T04:39:18;97554.00;;;20.37;62.52
55066;BME280;40964;42.114;24.220;2023-05-23T04:41:44;97554.75;;;20.67;60.32
55066;BME280;40964;42.114;24.220;2023-05-23T04:44:10;97551.72;;;20.92;59.73
55066;BME280;40964;42.114;24.220;2023-05-23T04:46:35;97554.81;;;21.18;59.22
55066;BME280;40964;42.114;24.220;2023-05-23T04:49:01;97557.63;;;21.46;58.39
55066;BME280;40964;42.114;24.220;2023-05-23T04:51:28;97563.53;;;21.62;58.81
55066;BME280;40964;42.114;24.220;2023-05-23T04:53:53;97558.50;;;21.74;58.45
55066;BME280;40964;42.114;24.220;2023-05-23T04:56:19;97557.44;;;21.89;59.80
55066;BME280;40964;42.114;24.220;2023-05-23T04:58:48;97544.66;;;21.86;57.62
55066;BME280;40964;42.114;24.220;2023-05-23T05:01:13;97556.06;;;22.05;56.51
55066;BME280;40964;42.114;24.220;2023-05-23T05:03:39;97544.41;;;22.15;52.26
55066;BME280;40964;42.114;24.220;2023-05-23T05:06:06;97556.75;;;21.97;52.53
55066;BME280;40964;42.114;24.220;2023-05-23T05:08:31;97560.59;;;21.91;53.50
55066;BME280;40964;42.114;24.220;2023-05-23T05:10:57;97558.75;;;21.59;54.85
55066;BME280;40964;42.114;24.220;2023-05-23T05:13:22;97566.25;;;21.24;57.02
55066;BME280;40964;42.114;24.220;2023-05-23T05:15:48;97565.16;;;21.06;59.69
55066;BME280;40964;42.114;24.220;2023-05-23T05:18:13;97570.50;;;21.06;61.14
55066;BME280;40964;42.114;24.220;2023-05-23T05:20:39;97567.09;;;21.19;59.02
55066;BME280;40964;42.114;24.220;2023-05-23T05:23:04;97568.94;;;21.05;59.18
55066;BME280;40964;42.114;24.220;2023-05-23T05:25:30;97572.84;;;21.32;56.42
55066;BME280;40964;42.114;24.220;2023-05-23T05:28:05;97575.72;;;21.35;58.38
55066;BME280;40964;42.114;24.220;2023-05-23T05:30:31;97576.13;;;21.61;57.07
55066;BME280;40964;42.114;24.220;2023-05-23T05:33:00;97577.75;;;21.76;54.83
55066;BME280;40964;42.114;24.220;2023-05-23T05:35:29;97580.13;;;21.77;56.54
55066;BME280;40964;42.114;24.220;2023-05-23T05:37:55;97559.50;;;21.92;56.04
55066;BME280;40964;42.114;24.220;2023-05-23T05:40:20;97572.66;;;22.07;56.85
55066;BME280;40964;42.114;24.220;2023-05-23T05:42:46;97560.09;;;22.21;54.64
55066;BME280;40964;42.114;24.220;2023-05-23T05:45:11;97572.28;;;22.41;55.99
55066;BME280;40964;42.114;24.220;2023-05-23T05:47:37;97569.31;;;22.56;57.17
55066;BME280;40964;42.114;24.220;2023-05-23T05:50:04;97566.53;;;22.48;57.13
55066;BME280;40964;42.114;24.220;2023-05-23T05:52:31;97581.50;;;22.35;55.35
55066;BME280;40964;42.114;24.220;2023-05-23T05:54:56;97574.38;;;22.44;55.74
55066;BME280;40964;42.114;24.220;2023-05-23T05:57:22;97574.16;;;22.27;57.64
55066;BME280;40964;42.114;24.220;2023-05-23T05:59:47;97581.72;;;22.25;57.04
55066;BME280;40964;42.114;24.220;2023-05-23T06:02:12;97577.94;;;22.67;56.30
55066;BME280;40964;42.114;24.220;2023-05-23T06:04:38;97582.59;;;22.75;56.23
55066;BME280;40964;42.114;24.220;2023-05-23T06:07:03;97574.25;;;22.77;55.11
55066;BME280;40964;42.114;24.220;2023-05-23T06:09:29;97580.28;;;22.82;54.96
55066;BME280;40964;42.114;24.220;2023-05-23T06:11:55;97578.81;;;22.76;55.14
55066;BME280;40964;42.114;24.220;2023-05-23T06:14:20;97576.34;;;23.16;55.15
55066;BME280;40964;42.114;24.220;2023-05-23T06:16:45;97572.84;;;23.29;50.08
55066;BME280;40964;42.114;24.220;2023-05-23T06:19:11;97575.16;;;23.22;54.29
55066;BME280;40964;42.114;24.220;2023-05-23T06:21:36;97568.38;;;23.25;47.28
55066;BME280;40964;42.114;24.220;2023-05-23T06:24:02;97570.19;;;23.15;48.56
55066;BME280;40964;42.114;24.220;2023-05-23T06:26:27;97568.66;;;23.01;47.70
55066;BME280;40964;42.114;24.220;2023-05-23T06:28:53;97565.06;;;23.05;47.92
55066;BME280;40964;42.114;24.220;2023-05-23T06:31:18;97566.19;;;22.90;51.42
55066;BME280;40964;42.114;24.220;2023-05-23T06:33:43;97572.56;;;22.94;49.89
55066;BME280;40964;42.114;24.220;2023-05-23T06:36:09;97572.63;;;23.03;51.04
55066;BME280;40964;42.114;24.220;2023-05-23T06:38:34;97557.44;;;22.99;46.38
55066;BME280;40964;42.114;24.220;2023-05-23T06:41:00;97561.91;;;22.89;48.18
55066;BME280;40964;42.114;24.220;2023-05-23T06:43:26;97563.72;;;22.94;49.30
55066;BME280;40964;42.114;24.220;2023-05-23T06:45:52;97556.63;;;22.98;48.73
55066;BME280;40964;42.114;24.220;2023-05-23T06:48:18;97562.91;;;22.80;50.19
55066;BME280;40964;42.114;24.220;2023-05-23T06:50:43;97571.16;;;22.97;51.18
55066;BME280;40964;42.114;24.220;2023-05-23T06:53:08;97560.19;;;23.07;50.48
55066;BME280;40964;42.114;24.220;2023-05-23T06:55:34;97564.50;;;22.81;47.06
55066;BME280;40964;42.114;24.220;2023-05-23T06:57:59;97559.16;;;22.53;49.22
55066;BME280;40964;42.114;24.220;2023-05-23T07:00:28;97564.22;;;22.69;50.32
55066;BME280;40964;42.114;24.220;2023-05-23T07:02:54;97571.16;;;22.70;50.84
55066;BME280;40964;42.114;24.220;2023-05-23T07:05:19;97565.28;;;22.95;51.57
55066;BME280;40964;42.114;24.220;2023-05-23T07:07:46;97567.69;;;22.83;48.29
55066;BME280;40964;42.114;24.220;2023-05-23T07:10:11;97573.44;;;22.90;47.67
55066;BME280;40964;42.114;24.220;2023-05-23T07:12:37;97570.66;;;22.95;47.92
55066;BME280;40964;42.114;24.220;2023-05-23T07:15:03;97574.22;;;22.90;48.49
55066;BME280;40964;42.114;24.220;2023-05-23T07:17:28;97567.66;;;23.10;49.97
55066;BME280;40964;42.114;24.220;2023-05-23T07:19:54;97564.56;;;23.39;48.87
55066;BME280;40964;42.114;24.220;2023-05-23T07:22:20;97560.09;;;23.57;47.34
55066;BME280;40964;42.114;24.220;2023-05-23T07:24:45;97562.41;;;23.50;48.41
55066;BME280;40964;42.114;24.220;2023-05-23T07:27:11;97559.09;;;23.53;49.04
55066;BME280;40964;42.114;24.220;2023-05-23T07:29:36;97557.41;;;23.57;48.45
55066;BME280;40964;42.114;24.220;2023-05-23T07:32:02;97559.00;;;23.58;47.07
55066;BME280;40964;42.114;24.220;2023-05-23T07:34:27;97549.56;;;23.61;45.02
55066;BME280;40964;42.114;24.220;2023-05-23T07:36:53;97547.97;;;23.60;47.32
55066;BME280;40964;42.114;24.220;2023-05-23T07:39:18;97553.22;;;23.65;47.39
55066;BME280;40964;42.114;24.220;2023-05-23T07:41:48;97543.91;;;23.71;46.44
55066;BME280;40964;42.114;24.220;2023-05-23T07:44:15;97543.56;;;23.95;47.68
55066;BME280;40964;42.114;24.220;2023-05-23T07:46:40;97552.31;;;24.00;46.54
55066;BME280;40964;42.114;24.220;2023-05-23T07:49:06;97538.31;;;24.21;43.63
55066;BME280;40964;42.114;24.220;2023-05-23T07:51:31;97546.97;;;24.57;45.18
55066;BME280;40964;42.114;24.220;2023-05-23T07:53:57;97555.44;;;24.33;44.75
55066;BME280;40964;42.114;24.220;2023-05-23T07:56:22;97553.88;;;24.32;41.93
55066;BME280;40964;42.114;24.220;2023-05-23T07:58:48;97552.75;;;24.33;43.04
55066;BME280;40964;42.114;24.220;2023-05-23T08:01:13;97546.69;;;24.68;41.04
55066;BME280;40964;42.114;24.220;2023-05-23T08:03:39;97547.84;;;24.92;41.51
55066;BME280;40964;42.114;24.220;2023-05-23T08:06:04;97542.13;;;24.85;44.22
55066;BME280;40964;42.114;24.220;2023-05-23T08:08:32;97550.34;;;24.98;40.82
55066;BME280;40964;42.114;24.220;2023-05-23T08:10:57;97548.81;;;25.14;43.53
55066;BME280;40964;42.114;24.220;2023-05-23T08:13:22;97542.59;;;24.87;42.41
55066;BME280;40964;42.114;24.220;2023-05-23T08:15:48;97551.19;;;25.15;43.21
55066;BME280;40964;42.114;24.220;2023-05-23T08:18:13;97551.78;;;25.56;44.39
55066;BME280;40964;42.114;24.220;2023-05-23T08:20:39;97538.44;;;25.68;40.77
55066;BME280;40964;42.114;24.220;2023-05-23T08:23:04;97540.19;;;25.81;38.66
55066;BME280;40964;42.114;24.220;2023-05-23T08:25:30;97534.78;;;26.28;38.16
55066;BME280;40964;42.114;24.220;2023-05-23T08:28:00;97544.59;;;26.24;39.37
55066;BME280;40964;42.114;24.220;2023-05-23T08:30:27;97542.78;;;26.16;39.52
55066;BME280;40964;42.114;24.220;2023-05-23T08:32:54;97537.09;;;26.09;39.99
55066;BME280;40964;42.114;24.220;2023-05-23T08:35:20;97536.25;;;26.17;38.81
55066;BME280;40964;42.114;24.220;2023-05-23T08:37:47;97533.19;;;26.27;37.83
55066;BME280;40964;42.114;24.220;2023-05-23T08:40:20;97522.03;;;26.67;39.58
55066;BME280;40964;42.114;24.220;2023-05-23T08:42:47;97524.41;;;26.68;38.60
55066;BME280;40964;42.114;24.220;2023-05-23T08:45:13;97522.97;;;26.71;38.21
55066;BME280;40964;42.114;24.220;2023-05-23T08:47:41;97520.16;;;26.38;38.37
55066;BME280;40964;42.114;24.220;2023-05-23T08:50:07;97511.84;;;26.51;39.15
55066;BME280;40964;42.114;24.220;2023-05-23T08:52:37;97524.56;;;27.13;37.32
55066;BME280;40964;42.114;24.220;2023-05-23T08:55:08;97513.75;;;27.13;38.05
55066;BME280;40964;42.114;24.220;2023-05-23T08:57:35;97515.69;;;27.13;39.12
55066;BME280;40964;42.114;24.220;2023-05-23T09:00:02;97515.81;;;27.17;36.97
55066;BME280;40964;42.114;24.220;2023-05-23T09:02:34;97515.44;;;27.06;36.69
55066;BME280;40964;42.114;24.220;2023-05-23T09:05:00;97512.03;;;27.63;36.36
55066;BME280;40964;42.114;24.220;2023-05-23T09:07:27;97512.00;;;27.51;35.06
55066;BME280;40964;42.114;24.220;2023-05-23T09:09:53;97511.41;;;27.12;36.93
55066;BME280;40964;42.114;24.220;2023-05-23T09:12:18;97520.00;;;26.64;37.86
55066;BME280;40964;42.114;24.220;2023-05-23T09:14:46;97522.16;;;26.11;37.95
55066;BME280;40964;42.114;24.220;2023-05-23T09:17:18;97511.22;;;26.16;37.96
55066;BME280;40964;42.114;24.220;2023-05-23T09:19:43;97511.00;;;26.21;38.19
55066;BME280;40964;42.114;24.220;2023-05-23T09:22:11;97516.06;;;26.23;38.69
55066;BME280;40964;42.114;24.220;2023-05-23T09:24:37;97513.88;;;26.25;38.67
55066;BME280;40964;42.114;24.220;2023-05-23T09:27:06;97520.31;;;25.94;39.92
55066;BME280;40964;42.114;24.220;2023-05-23T09:29:36;97519.13;;;26.13;39.44
55066;BME280;40964;42.114;24.220;2023-05-23T09:32:16;97509.31;;;26.17;37.74
55066;BME280;40964;42.114;24.220;2023-05-23T09:34:59;97505.34;;;26.73;38.27
55066;BME280;40964;42.114;24.220;2023-05-23T09:38:01;97510.88;;;26.98;36.91
55066;BME280;40964;42.114;24.220;2023-05-23T09:40:28;97507.31;;;27.27;35.13
55066;BME280;40964;42.114;24.220;2023-05-23T09:42:54;97518.31;;;27.22;37.15
55066;BME280;40964;42.114;24.220;2023-05-23T09:45:19;97517.25;;;26.93;36.49
55066;BME280;40964;42.114;24.220;2023-05-23T09:47:51;97523.00;;;26.03;38.83
55066;BME280;40964;42.114;24.220;2023-05-23T09:50:17;97509.25;;;25.87;40.52
55066;BME280;40964;42.114;24.220;2023-05-23T09:52:42;97517.66;;;25.86;39.52
55066;BME280;40964;42.114;24.220;2023-05-23T09:55:09;97523.06;;;25.86;39.46
55066;BME280;40964;42.114;24.220;2023-05-23T09:57:39;97519.09;;;25.83;43.66
55066;BME280;40964;42.114;24.220;2023-05-23T10:00:07;97511.69;;;25.63;40.60
55066;BME280;40964;42.114;24.220;2023-05-23T10:06:06;97502.88;;;25.02;46.41
55066;BME280;40964;42.114;24.220;2023-05-23T10:08:26;97510.00;;;24.63;47.58
55066;BME280;40964;42.114;24.220;2023-05-23T10:13:24;97515.38;;;24.63;45.66
55066;BME280;40964;42.114;24.220;2023-05-23T10:15:54;97517.91;;;24.68;44.50
55066;BME280;40964;42.114;24.220;2023-05-23T10:18:25;97527.56;;;24.78;45.17
55066;BME280;40964;42.114;24.220;2023-05-23T10:20:56;97527.19;;;24.36;45.78
55066;BME280;40964;42.114;24.220;2023-05-23T10:23:26;97525.34;;;24.23;46.21
55066;BME280;40964;42.114;24.220;2023-05-23T10:25:53;97523.91;;;24.17;47.94
55066;BME280;40964;42.114;24.220;2023-05-23T10:28:19;97531.69;;;23.87;49.28
55066;BME280;40964;42.114;24.220;2023-05-23T10:30:45;97508.97;;;23.62;49.56
55066;BME280;40964;42.114;24.220;2023-05-23T10:33:11;97528.44;;;23.68;50.14
55066;BME280;40964;42.114;24.220;2023-05-23T10:36:09;97523.19;;;23.63;53.16
55066;BME280;40964;42.114;24.220;2023-05-23T10:38:49;97514.97;;;23.59;53.01
55066;BME280;40964;42.114;24.220;2023-05-23T10:41:33;97519.03;;;23.34;56.24
55066;BME280;40964;42.114;24.220;2023-05-23T10:44:18;97519.84;;;23.12;57.57
55066;BME280;40964;42.114;24.220;2023-05-23T10:46:54;97523.34;;;22.99;59.54
55066;BME280;40964;42.114;24.220;2023-05-23T10:49:39;97522.69;;;22.93;61.43
55066;BME280;40964;42.114;24.220;2023-05-23T10:52:06;97530.34;;;22.73;59.34
55066;BME280;40964;42.114;24.220;2023-05-23T10:54:36;97533.78;;;22.51;52.42
55066;BME280;40964;42.114;24.220;2023-05-23T10:57:06;97528.38;;;22.64;54.31
55066;BME280;40964;42.114;24.220;2023-05-23T10:59:31;97534.56;;;22.65;56.60
55066;BME280;40964;42.114;24.220;2023-05-23T11:01:58;97530.47;;;22.54;54.54
55066;BME280;40964;42.114;24.220;2023-05-23T11:04:26;97518.88;;;22.58;54.01
55066;BME280;40964;42.114;24.220;2023-05-23T11:06:53;97522.03;;;22.60;56.01
55066;BME280;40964;42.114;24.220;2023-05-23T11:09:20;97523.56;;;22.39;54.62
55066;BME280;40964;42.114;24.220;2023-05-23T11:11:59;97513.84;;;22.29;53.75
55066;BME280;40964;42.114;24.220;2023-05-23T11:16:57;97513.53;;;22.31;51.67
55066;BME280;40964;42.114;24.220;2023-05-23T11:19:25;97510.44;;;22.37;50.09
55066;BME280;40964;42.114;24.220;2023-05-23T11:21:59;97506.97;;;22.51;50.49
55066;BME280;40964;42.114;24.220;2023-05-23T11:24:54;97512.81;;;22.66;51.79
55066;BME280;40964;42.114;24.220;2023-05-23T11:32:34;97506.91;;;23.14;46.67
55066;BME280;40964;42.114;24.220;2023-05-23T11:35:04;97511.19;;;23.38;45.84
55066;BME280;40964;42.114;24.220;2023-05-23T11:37:30;97507.44;;;23.47;46.21
55066;BME280;40964;42.114;24.220;2023-05-23T11:39:57;97501.81;;;23.58;45.25
55066;BME280;40964;42.114;24.220;2023-05-23T11:42:23;97499.00;;;23.94;44.24
55066;BME280;40964;42.114;24.220;2023-05-23T11:44:49;97499.69;;;24.08;43.33
55066;BME280;40964;42.114;24.220;2023-05-23T11:47:16;97494.59;;;24.38;42.59
55066;BME280;40964;42.114;24.220;2023-05-23T11:49:43;97497.16;;;24.69;41.90
55066;BME280;40964;42.114;24.220;2023-05-23T11:52:09;97497.97;;;24.86;41.13
55066;BME280;40964;42.114;24.220;2023-05-23T11:54:34;97494.34;;;25.00;40.75
55066;BME280;40964;42.114;24.220;2023-05-23T11:57:00;97489.44;;;25.02;40.86
55066;BME280;40964;42.114;24.220;2023-05-23T11:59:26;97497.19;;;25.29;38.17
55066;BME280;40964;42.114;24.220;2023-05-23T12:01:53;97503.88;;;25.70;39.33
55066;BME280;40964;42.114;24.220;2023-05-23T12:04:19;97481.72;;;26.11;38.93
55066;BME280;40964;42.114;24.220;2023-05-23T12:06:48;97492.38;;;26.37;36.23
55066;BME280;40964;42.114;24.220;2023-05-23T12:09:14;97487.69;;;26.55;35.75
55066;BME280;40964;42.114;24.220;2023-05-23T12:11:41;97489.63;;;26.96;38.55
55066;BME280;40964;42.114;24.220;2023-05-23T12:14:08;97480.03;;;27.20;37.32
55066;BME280;40964;42.114;24.220;2023-05-23T12:16:34;97480.66;;;27.70;36.81
55066;BME280;40964;42.114;24.220;2023-05-23T12:19:02;97484.22;;;27.62;35.68
55066;BME280;40964;42.114;24.220;2023-05-23T12:21:41;97468.75;;;27.96;37.27
55066;BME280;40964;42.114;24.220;2023-05-23T12:24:17;97462.88;;;28.31;37.13
55066;BME280;40964;42.114;24.220;2023-05-23T12:29:11;97459.69;;;27.67;33.79
55066;BME280;40964;42.114;24.220;2023-05-23T12:31:37;97459.56;;;27.64;34.84
55066;BME280;40964;42.114;24.220;2023-05-23T12:34:03;97459.22;;;27.65;34.64
55066;BME280;40964;42.114;24.220;2023-05-23T12:36:28;97457.00;;;27.67;35.72
55066;BME280;40964;42.114;24.220;2023-05-23T12:39:05;97452.06;;;28.06;34.04
55066;BME280;40964;42.114;24.220;2023-05-23T12:41:32;97457.91;;;28.20;34.16
55066;BME280;40964;42.114;24.220;2023-05-23T12:43:58;97451.06;;;28.35;36.18
55066;BME280;40964;42.114;24.220;2023-05-23T12:46:24;97451.06;;;28.75;31.79
55066;BME280;40964;42.114;24.220;2023-05-23T12:48:50;97445.66;;;28.75;33.83
55066;BME280;40964;42.114;24.220;2023-05-23T12:51:17;97449.34;;;28.95;31.54
55066;BME280;40964;42.114;24.220;2023-05-23T12:53:43;97444.28;;;28.81;31.84
55066;BME280;40964;42.114;24.220;2023-05-23T12:56:08;97439.78;;;28.73;31.88
55066;BME280;40964;42.114;24.220;2023-05-23T12:58:34;97441.91;;;28.80;32.45
55066;BME280;40964;42.114;24.220;2023-05-23T13:01:00;97429.84;;;28.90;32.19
55066;BME280;40964;42.114;24.220;2023-05-23T13:03:27;97425.25;;;28.78;31.92
55066;BME280;40964;42.114;24.220;2023-05-23T13:05:55;97433.81;;;29.08;34.83
55066;BME280;40964;42.114;24.220;2023-05-23T13:08:22;97433.22;;;28.46;33.79
55066;BME280;40964;42.114;24.220;2023-05-23T13:10:47;97431.34;;;28.10;33.10
55066;BME280;40964;42.114;24.220;2023-05-23T13:13:13;97424.94;;;27.78;33.93
55066;BME280;40964;42.114;24.220;2023-05-23T13:15:39;97424.44;;;27.52;33.97
55066;BME280;40964;42.114;24.220;2023-05-23T13:18:04;97418.97;;;27.73;34.78
55066;BME280;40964;42.114;24.220;2023-05-23T13:20:30;97421.75;;;28.00;34.21